createdAt,value
2023-03-05T00:03:07.146Z,1.33
2023-03-05T00:06:21.223Z,1.29
2023-03-05T00:09:35.827Z,1.22
2023-03-05T00:12:48.586Z,1.17
2023-03-05T00:16:03.561Z,1.13
2023-03-05T00:19:16.302Z,1.12
2023-03-05T00:22:28.629Z,1.02
2023-03-05T00:25:41.381Z,1.03
2023-03-05T00:28:55.029Z,0.94
2023-03-05T00:32:07.776Z,0.91
2023-03-05T00:35:20.179Z,0.85
2023-03-05T00:38:33.674Z,0.87
2023-03-05T00:41:46.144Z,0.84
2023-03-05T00:44:58.794Z,0.82
2023-03-05T00:48:11.139Z,0.81
2023-03-05T00:51:24.673Z,0.76
2023-03-05T00:54:36.971Z,0.73
2023-03-05T00:57:49.604Z,0.70
2023-03-05T01:01:02.856Z,0.66
2023-03-05T01:04:15.566Z,0.65
2023-03-05T01:07:27.874Z,0.58
2023-03-05T01:10:40.689Z,0.60
2023-03-05T01:13:53.007Z,0.60
2023-03-05T01:17:06.692Z,0.62
2023-03-05T01:20:19.897Z,0.61
2023-03-05T01:23:34.460Z,0.59
2023-03-05T01:26:47.138Z,0.59
2023-03-05T01:29:59.736Z,0.57
2023-03-05T01:33:12.043Z,0.65
2023-03-05T01:36:25.269Z,0.68
2023-03-05T01:39:37.696Z,0.70
2023-03-05T01:42:56.766Z,0.73
2023-03-05T01:46:39.523Z,0.76
2023-03-05T01:49:54.261Z,0.75
2023-03-05T01:53:06.807Z,0.76
2023-03-05T01:56:19.419Z,0.82
2023-03-05T01:59:31.833Z,0.92
2023-03-05T02:02:45.020Z,1.00
2023-03-05T02:05:57.633Z,1.17
2023-03-05T02:09:10.162Z,1.19
2023-03-05T02:12:23.005Z,1.30
2023-03-05T02:15:36.041Z,1.40
2023-03-05T02:18:48.392Z,1.54
2023-03-05T02:22:01.122Z,1.45
2023-03-05T02:25:17.357Z,1.50
2023-03-05T02:28:39.836Z,1.51
2023-03-05T02:31:53.170Z,1.48
2023-03-05T02:35:06.222Z,1.57
2023-03-05T02:38:19.696Z,1.59
2023-03-05T02:41:35.079Z,1.67
2023-03-05T02:44:47.541Z,1.66
2023-03-05T02:48:01.654Z,1.70
2023-03-05T02:51:14.417Z,1.73
2023-03-05T02:54:28.300Z,1.74
2023-03-05T02:57:40.939Z,1.67
2023-03-05T03:00:53.745Z,1.59
2023-03-05T03:04:06.227Z,1.71
2023-03-05T03:07:18.995Z,1.72
2023-03-05T03:10:31.382Z,1.78
2023-03-05T03:13:44.012Z,1.85
2023-03-05T03:16:56.419Z,1.92
2023-03-05T03:20:10.457Z,2.00
2023-03-05T03:23:23.292Z,1.98
2023-03-05T03:26:35.931Z,1.99
2023-03-05T03:29:48.232Z,1.91
2023-03-05T03:33:00.821Z,1.93
2023-03-05T03:36:13.137Z,1.93
2023-03-05T03:39:25.758Z,1.98
2023-03-05T03:42:38.051Z,1.92
2023-03-05T03:45:50.692Z,2.05
2023-03-05T03:49:03.169Z,2.09
2023-03-05T03:52:15.918Z,1.95
2023-03-05T03:55:28.269Z,2.07
2023-03-05T03:58:40.906Z,2.08
2023-03-05T04:01:53.209Z,2.09
2023-03-05T04:05:06.348Z,2.11
2023-03-05T04:08:18.709Z,2.06
2023-03-05T04:11:31.545Z,2.08
2023-03-05T04:14:50.023Z,2.09
2023-03-05T04:18:02.704Z,2.12
2023-03-05T04:21:15.104Z,2.12
2023-03-05T04:24:27.749Z,2.28
2023-03-05T04:27:42.769Z,2.26
2023-03-05T04:30:55.395Z,2.23
2023-03-05T04:34:07.807Z,2.14
2023-03-05T04:37:20.372Z,2.24
2023-03-05T04:40:32.806Z,2.15
2023-03-05T04:43:45.421Z,2.21
2023-03-05T04:46:57.774Z,2.28
2023-03-05T04:50:11.740Z,2.28
2023-03-05T04:53:24.084Z,2.21
2023-03-05T04:56:36.676Z,2.30
2023-03-05T04:59:48.996Z,2.22
2023-03-05T05:03:01.690Z,2.32
2023-03-05T05:06:14.055Z,2.28
2023-03-05T05:09:26.650Z,2.29
2023-03-05T05:12:39.093Z,2.34
2023-03-05T05:15:51.886Z,2.41
2023-03-05T05:19:04.339Z,2.35
2023-03-05T05:22:16.975Z,2.36
2023-03-05T05:25:29.375Z,2.35
2023-03-05T05:28:45.640Z,2.41
2023-03-05T05:31:58.021Z,2.33
2023-03-05T05:35:10.980Z,2.37
2023-03-05T05:38:23.286Z,2.40
2023-03-05T05:41:35.900Z,2.40
2023-03-05T05:44:48.248Z,2.39
2023-03-05T05:48:00.888Z,2.44
2023-03-05T05:51:15.108Z,2.51
2023-03-05T05:54:27.744Z,2.56
2023-03-05T05:57:40.179Z,2.57
2023-03-05T06:00:52.797Z,2.69
2023-03-05T06:04:05.377Z,2.63
2023-03-05T06:07:17.731Z,2.88
2023-03-05T06:10:30.352Z,2.89
2023-03-05T06:13:42.713Z,3.04
2023-03-05T06:16:55.432Z,3.05
2023-03-05T06:20:08.564Z,3.06
2023-03-05T06:23:21.213Z,3.01
2023-03-05T06:26:33.540Z,3.15
2023-03-05T06:29:46.192Z,2.92
2023-03-05T06:32:59.606Z,3.29
2023-03-05T06:36:13.713Z,3.09
2023-03-05T06:39:26.009Z,2.91
2023-03-05T06:42:38.680Z,3.14
2023-03-05T06:46:00.872Z,3.18
2023-03-05T06:49:13.497Z,3.23
2023-03-05T06:52:25.868Z,3.31
2023-03-05T06:55:39.833Z,3.28
2023-03-05T06:58:52.218Z,3.28
2023-03-05T07:02:04.945Z,3.44
2023-03-05T07:05:17.403Z,3.49
2023-03-05T07:08:30.061Z,3.51
2023-03-05T07:11:42.508Z,3.48
2023-03-05T07:14:55.118Z,3.71
2023-03-05T07:18:07.536Z,3.62
2023-03-05T07:21:24.351Z,3.73
2023-03-05T07:24:36.825Z,3.79
2023-03-05T07:27:49.443Z,3.69
2023-03-05T07:31:22.592Z,3.83
2023-03-05T07:34:37.601Z,3.82
2023-03-05T07:37:50.269Z,3.86
2023-03-05T07:41:19.886Z,4.04
2023-03-05T07:44:32.252Z,3.94
2023-03-05T07:47:44.905Z,3.99
2023-03-05T07:51:01.963Z,3.92
2023-03-05T07:54:14.464Z,4.05
2023-03-05T07:57:26.717Z,4.25
2023-03-05T08:00:39.533Z,4.00
2023-03-05T08:03:52.244Z,4.06
2023-03-05T08:07:04.695Z,4.10
2023-03-05T08:10:17.472Z,4.06
2023-03-05T08:13:29.778Z,4.15
2023-03-05T08:16:42.464Z,3.89
2023-03-05T08:19:57.740Z,4.33
2023-03-05T08:23:10.353Z,4.13
2023-03-05T08:26:23.513Z,4.34
2023-03-05T08:29:36.238Z,4.17
2023-03-05T08:32:49.410Z,4.34
2023-03-05T08:36:01.997Z,4.27
2023-03-05T08:39:14.343Z,4.51
2023-03-05T08:42:26.969Z,4.41
2023-03-05T08:45:40.107Z,4.47
2023-03-05T08:48:52.708Z,4.27
2023-03-05T08:52:05.184Z,4.57
2023-03-05T08:55:17.912Z,4.42
2023-03-05T08:58:30.252Z,4.36
2023-03-05T09:01:42.968Z,4.43
2023-03-05T09:04:55.319Z,4.85
2023-03-05T09:08:07.948Z,4.64
2023-03-05T09:11:20.683Z,4.84
2023-03-05T09:14:33.317Z,5.03
2023-03-05T09:17:45.707Z,4.73
2023-03-05T09:20:58.284Z,4.67
2023-03-05T09:24:11.859Z,4.82
2023-03-05T09:27:24.473Z,4.78
2023-03-05T09:30:36.884Z,4.88
2023-03-05T09:33:49.686Z,4.74
2023-03-05T09:37:03.118Z,4.95
2023-03-05T09:40:17.058Z,4.99
2023-03-05T09:44:15.520Z,5.11
2023-03-05T09:47:40.383Z,5.18
2023-03-05T09:51:00.229Z,5.10
2023-03-05T09:54:17.875Z,5.37
2023-03-05T09:57:36.681Z,5.34
2023-03-05T10:00:50.681Z,5.51
2023-03-05T10:04:09.298Z,5.42
2023-03-05T10:07:26.240Z,5.57
2023-03-05T10:10:43.289Z,5.56
2023-03-05T10:13:55.796Z,5.57
2023-03-05T10:17:33.548Z,5.69
2023-03-05T10:20:59.483Z,5.72
2023-03-05T10:24:32.179Z,5.81
2023-03-05T10:28:06.109Z,5.57
2023-03-05T10:31:44.789Z,5.64
2023-03-05T10:35:18.360Z,5.74
2023-03-05T10:38:40.077Z,5.77
2023-03-05T10:42:02.672Z,5.98
2023-03-05T10:45:24.653Z,5.71
2023-03-05T10:48:39.904Z,6.17
2023-03-05T10:52:28.290Z,5.94
2023-03-05T10:55:40.712Z,5.98
2023-03-05T10:58:53.622Z,5.91
2023-03-05T11:02:08.897Z,6.20
2023-03-05T11:06:00.617Z,6.10
2023-03-05T11:09:32.481Z,5.99
2023-03-05T11:12:45.322Z,6.34
2023-03-05T11:16:05.553Z,6.08
2023-03-05T11:19:29.942Z,6.05
2023-03-05T11:22:42.287Z,6.05
2023-03-05T11:26:21.897Z,6.09
2023-03-05T11:29:34.788Z,5.96
2023-03-05T11:32:47.423Z,5.74
2023-03-05T11:36:17.985Z,5.74
2023-03-05T11:39:33.122Z,5.92
2023-03-05T11:42:45.473Z,5.77
2023-03-05T11:46:05.256Z,5.65
2023-03-05T11:49:22.815Z,5.71
2023-03-05T11:52:58.293Z,5.70
2023-03-05T11:56:13.422Z,5.75
2023-03-05T11:59:28.858Z,5.82
2023-03-05T12:02:41.254Z,5.73
2023-03-05T12:05:57.090Z,5.70
2023-03-05T12:09:11.537Z,5.69
2023-03-05T12:12:37.512Z,5.54
2023-03-05T12:15:49.992Z,5.54
2023-03-05T12:19:05.640Z,5.86
2023-03-05T12:22:32.964Z,6.50
2023-03-05T12:25:53.071Z,6.45
2023-03-05T12:29:05.438Z,5.97
2023-03-05T12:32:33.355Z,6.16
2023-03-05T12:35:46.460Z,6.35
2023-03-05T12:39:00.203Z,5.98
2023-03-05T12:42:31.424Z,6.19
2023-03-05T12:45:45.492Z,6.29
2023-03-05T12:48:57.841Z,6.27
2023-03-05T12:52:23.300Z,6.22
2023-03-05T12:55:47.630Z,6.27
2023-03-05T12:59:00.523Z,6.40
2023-03-05T13:02:39.922Z,6.09
2023-03-05T13:05:57.122Z,6.37
2023-03-05T13:09:38.735Z,6.89
2023-03-05T13:12:55.431Z,6.77
2023-03-05T13:16:20.205Z,6.44
2023-03-05T13:19:33.361Z,6.78
2023-03-05T13:22:45.710Z,6.89
2023-03-05T13:26:12.258Z,6.28
2023-03-05T13:29:30.724Z,6.29
2023-03-05T13:32:43.373Z,5.98
2023-03-05T13:35:55.698Z,6.20
2023-03-05T13:39:15.803Z,6.10
2023-03-05T13:42:31.403Z,6.03
2023-03-05T13:45:44.577Z,6.18
2023-03-05T13:48:57.698Z,6.24
2023-03-05T13:52:10.325Z,6.14
2023-03-05T13:55:22.657Z,6.19
2023-03-05T13:58:54.618Z,5.92
2023-03-05T14:02:18.121Z,6.13
2023-03-05T14:05:31.427Z,6.05
2023-03-05T14:08:43.748Z,6.02
2023-03-05T14:11:58.614Z,6.15
2023-03-05T14:15:22.893Z,6.16
2023-03-05T14:18:35.879Z,6.00
2023-03-05T14:21:49.648Z,5.66
2023-03-05T14:25:03.219Z,5.63
2023-03-05T14:28:18.217Z,5.63
2023-03-05T14:31:34.347Z,5.57
2023-03-05T14:34:48.878Z,5.52
2023-03-05T14:38:01.562Z,5.44
2023-03-05T14:41:29.256Z,5.36
2023-03-05T14:44:42.097Z,5.28
2023-03-05T14:47:55.345Z,5.33
2023-03-05T14:51:09.238Z,5.35
2023-03-05T14:54:22.910Z,5.24
2023-03-05T14:57:35.498Z,5.26
2023-03-05T15:00:50.899Z,5.33
2023-03-05T15:04:03.794Z,5.29
2023-03-05T15:07:21.185Z,5.28
2023-03-05T15:10:33.820Z,5.34
2023-03-05T15:13:46.196Z,5.40
2023-03-05T15:16:58.818Z,5.34
2023-03-05T15:20:14.383Z,5.43
2023-03-05T15:23:29.727Z,5.45
2023-03-05T15:26:42.108Z,5.57
2023-03-05T15:29:54.713Z,5.31
2023-03-05T15:33:12.565Z,5.39
2023-03-05T15:36:25.204Z,5.23
2023-03-05T15:39:37.505Z,5.18
2023-03-05T15:42:50.204Z,5.10
2023-03-05T15:46:05.560Z,5.00
2023-03-05T15:49:18.252Z,5.03
